createdAt,value
2019-02-17T00:01:24.483Z,85.95
2019-02-17T00:06:28.024Z,85.58
2019-02-17T00:11:31.434Z,85.57
2019-02-17T00:16:34.755Z,85.70
2019-02-17T00:21:38.335Z,85.70
2019-02-17T00:26:40.942Z,85.69
2019-02-17T00:31:43.871Z,86.38
2019-02-17T00:36:47.393Z,86.24
2019-02-17T00:41:50.589Z,86.72
2019-02-17T00:46:53.546Z,87.16
2019-02-17T00:51:56.876Z,86.91
2019-02-17T00:57:00.055Z,86.61
2019-02-17T01:02:03.307Z,86.57
2019-02-17T01:07:06.500Z,87.03
2019-02-17T01:12:09.798Z,87.71
2019-02-17T01:17:12.767Z,87.04
2019-02-17T01:22:15.943Z,87.81
2019-02-17T01:27:19.252Z,88.18
2019-02-17T01:32:22.869Z,87.52
2019-02-17T01:37:25.789Z,88.06
2019-02-17T01:42:28.721Z,88.14
2019-02-17T01:47:31.596Z,87.42
2019-02-17T01:52:34.521Z,87.31
2019-02-17T01:57:37.723Z,87.24
2019-02-17T02:02:40.625Z,87.15
2019-02-17T02:07:43.116Z,87.12
2019-02-17T02:12:46.645Z,86.81
2019-02-17T02:17:49.430Z,87.46
2019-02-17T02:22:52.649Z,87.78
2019-02-17T02:27:55.852Z,87.53
2019-02-17T02:32:59.073Z,87.60
2019-02-17T02:38:02.276Z,87.74
2019-02-17T02:43:05.487Z,88.20
2019-02-17T02:48:09.003Z,88.29
2019-02-17T02:53:12.518Z,87.95
2019-02-17T02:58:16.004Z,87.43
2019-02-17T03:03:18.830Z,87.84
2019-02-17T03:08:22.042Z,87.66
2019-02-17T03:13:25.620Z,88.68
2019-02-17T03:18:28.558Z,88.83
2019-02-17T03:23:31.722Z,88.29
2019-02-17T03:28:35.266Z,88.58
2019-02-17T03:33:38.654Z,88.01
2019-02-17T03:38:41.609Z,88.43
2019-02-17T03:43:44.098Z,88.69
2019-02-17T03:48:47.062Z,89.14
2019-02-17T03:53:49.592Z,88.93
2019-02-17T03:58:53.119Z,88.68
2019-02-17T04:03:56.371Z,88.63
2019-02-17T04:08:59.651Z,88.58
2019-02-17T04:14:02.844Z,88.48
2019-02-17T04:19:06.043Z,88.73
2019-02-17T04:24:09.265Z,89.15
2019-02-17T04:29:12.417Z,89.15
2019-02-17T04:34:15.976Z,89.97
2019-02-17T04:39:19.206Z,90.70
2019-02-17T04:44:22.522Z,90.81
2019-02-17T04:49:25.998Z,90.98
2019-02-17T04:54:29.535Z,90.69
2019-02-17T04:59:33.051Z,90.39
2019-02-17T05:04:35.561Z,89.91
2019-02-17T05:09:38.702Z,90.03
2019-02-17T05:14:41.256Z,90.12
2019-02-17T05:19:44.058Z,90.03
2019-02-17T05:24:46.867Z,90.09
2019-02-17T05:29:50.374Z,90.05
2019-02-17T05:34:53.810Z,89.65
2019-02-17T05:39:57.281Z,89.65
2019-02-17T05:45:00.489Z,89.34
2019-02-17T05:50:04.238Z,89.98
2019-02-17T05:55:07.145Z,90.35
2019-02-17T06:00:12.398Z,90.65
2019-02-17T06:05:15.627Z,91.33
2019-02-17T06:10:19.140Z,90.96
2019-02-17T06:15:22.335Z,90.95
2019-02-17T06:20:25.509Z,90.90
2019-02-17T06:25:28.425Z,90.98
2019-02-17T06:30:31.975Z,91.05
2019-02-17T06:35:34.515Z,91.06
2019-02-17T06:40:37.728Z,90.86
2019-02-17T06:45:40.989Z,89.78
2019-02-17T06:50:44.534Z,90.60
2019-02-17T06:55:51.882Z,90.13
2019-02-17T07:00:57.061Z,89.38
2019-02-17T07:06:29.011Z,88.98
2019-02-17T07:11:31.898Z,88.90
2019-02-17T07:16:35.400Z,88.83
2019-02-17T07:21:38.659Z,88.65
2019-02-17T07:26:42.164Z,88.86
2019-02-17T07:31:45.477Z,89.52
2019-02-17T07:36:48.424Z,89.98
2019-02-17T07:41:51.665Z,89.24
2019-02-17T07:46:54.638Z,89.24
2019-02-17T07:51:57.592Z,89.25
2019-02-17T07:57:00.790Z,88.74
2019-02-17T08:02:04.124Z,89.34
2019-02-17T08:07:07.668Z,88.52
2019-02-17T08:12:10.575Z,87.69
2019-02-17T08:17:13.114Z,88.11
2019-02-17T08:22:16.693Z,88.15
2019-02-17T08:27:19.597Z,88.66
2019-02-17T08:32:23.104Z,88.41
2019-02-17T08:37:26.110Z,88.67
2019-02-17T08:42:29.126Z,89.09
2019-02-17T08:47:32.323Z,89.30
2019-02-17T08:52:34.816Z,89.54
2019-02-17T08:57:38.284Z,88.40
2019-02-17T09:02:41.893Z,87.74
2019-02-17T09:07:44.455Z,87.62
2019-02-17T09:12:47.980Z,87.19
2019-02-17T09:17:50.977Z,85.64
2019-02-17T09:22:54.235Z,85.42
2019-02-17T09:27:57.501Z,84.76
2019-02-17T09:33:00.416Z,84.75
2019-02-17T09:38:03.042Z,84.75
2019-02-17T09:43:06.004Z,84.71
2019-02-17T09:48:09.246Z,84.37
2019-02-17T09:53:12.870Z,84.08
2019-02-17T09:58:16.079Z,83.42
2019-02-17T10:03:18.671Z,83.42
2019-02-17T10:08:21.609Z,82.93
2019-02-17T10:13:25.171Z,81.85
2019-02-17T10:18:28.800Z,80.77
2019-02-17T10:23:32.037Z,80.02
2019-02-17T10:28:42.050Z,79.07
2019-02-17T10:33:40.671Z,79.32
2019-02-17T10:38:43.252Z,79.20
2019-02-17T10:43:47.040Z,78.79
2019-02-17T10:48:50.588Z,78.94
2019-02-17T10:53:53.454Z,79.31
2019-02-17T10:58:57.111Z,78.85
2019-02-17T11:04:02.519Z,78.14
2019-02-17T11:09:17.217Z,77.79
2019-02-17T11:14:20.569Z,75.25
2019-02-17T11:19:23.631Z,76.02
2019-02-17T11:24:26.933Z,75.18
2019-02-17T11:29:30.179Z,72.21
2019-02-17T11:34:33.429Z,72.51
2019-02-17T11:39:37.068Z,72.77
2019-02-17T11:44:40.338Z,71.90
2019-02-17T11:49:43.755Z,71.83
2019-02-17T11:54:47.728Z,70.58
2019-02-17T11:59:50.685Z,70.51
2019-02-17T12:04:54.020Z,69.04
2019-02-17T12:09:57.323Z,70.47
2019-02-17T12:15:00.550Z,70.03
2019-02-17T12:20:21.657Z,67.89
2019-02-17T12:25:33.466Z,68.07
2019-02-17T12:30:38.114Z,65.42
2019-02-17T12:35:40.707Z,64.72
2019-02-17T12:40:44.350Z,66.40
2019-02-17T12:45:47.855Z,63.73
2019-02-17T12:50:50.448Z,62.37
2019-02-17T12:55:53.999Z,62.84
2019-02-17T13:00:57.262Z,62.21
2019-02-17T13:06:00.484Z,61.97
2019-02-17T13:11:04.008Z,62.37
2019-02-17T13:16:07.285Z,58.22
2019-02-17T13:21:10.559Z,57.62
2019-02-17T13:26:13.425Z,57.42
2019-02-17T13:31:16.425Z,56.95
2019-02-17T13:36:19.431Z,56.86
2019-02-17T13:41:22.984Z,55.24
2019-02-17T13:46:26.382Z,54.33
2019-02-17T13:51:29.910Z,52.52
2019-02-17T13:56:33.170Z,55.40
2019-02-17T14:01:36.502Z,54.46
2019-02-17T14:06:40.065Z,56.07
2019-02-17T14:11:42.707Z,54.55
2019-02-17T14:16:45.636Z,55.07
2019-02-17T14:21:48.932Z,55.57
2019-02-17T14:26:52.202Z,53.78
2019-02-17T14:31:55.548Z,53.10
2019-02-17T14:36:58.827Z,53.14
2019-02-17T14:42:02.179Z,53.04
2019-02-17T14:47:05.529Z,54.29
2019-02-17T14:52:08.732Z,55.34
2019-02-17T14:57:11.679Z,56.36
2019-02-17T15:02:15.304Z,56.03
2019-02-17T15:07:18.644Z,54.53
2019-02-17T15:12:21.640Z,54.80
2019-02-17T15:17:24.921Z,57.64
2019-02-17T15:22:27.874Z,57.19
2019-02-17T15:27:31.474Z,56.87
2019-02-17T15:32:35.020Z,57.90
2019-02-17T15:37:38.607Z,59.37
2019-02-17T15:42:43.227Z,59.88
2019-02-17T15:47:47.185Z,61.28
2019-02-17T15:52:50.699Z,61.34
2019-02-17T15:57:53.926Z,62.61
2019-02-17T16:02:57.134Z,63.10
2019-02-17T16:08:00.427Z,63.78
2019-02-17T16:13:03.644Z,63.88
2019-02-17T16:18:07.175Z,64.81
2019-02-17T16:23:10.400Z,65.32
2019-02-17T16:28:14.143Z,64.61
2019-02-17T16:33:17.360Z,65.31
2019-02-17T16:38:20.702Z,64.96
2019-02-17T16:43:24.429Z,65.34
2019-02-17T16:48:27.771Z,65.54
2019-02-17T16:53:31.477Z,65.48
2019-02-17T16:58:34.995Z,65.35
2019-02-17T17:03:38.518Z,65.74
2019-02-17T17:08:42.125Z,65.69
2019-02-17T17:13:45.044Z,63.89
2019-02-17T17:18:48.325Z,64.12
2019-02-17T17:23:51.918Z,67.79
2019-02-17T17:28:55.496Z,64.33
2019-02-17T17:34:00.546Z,64.46
2019-02-17T17:39:04.853Z,64.33
2019-02-17T17:44:08.201Z,64.23
2019-02-17T17:49:18.993Z,65.07
2019-02-17T17:54:16.764Z,65.75
2019-02-17T17:59:20.403Z,65.64
2019-02-17T18:04:23.753Z,65.79
2019-02-17T18:09:28.764Z,66.31
2019-02-17T18:14:33.435Z,66.29
2019-02-17T18:19:37.707Z,66.07
2019-02-17T18:24:42.236Z,66.02
2019-02-17T18:29:48.020Z,66.43
2019-02-17T18:34:52.157Z,65.96
2019-02-17T18:39:56.143Z,66.62
2019-02-17T18:45:00.648Z,66.89
2019-02-17T18:50:05.481Z,66.44
2019-02-17T18:55:12.936Z,66.63
2019-02-17T19:00:18.404Z,68.14
2019-02-17T19:05:31.891Z,68.29
2019-02-17T19:10:32.336Z,68.19
2019-02-17T19:15:38.949Z,68.63
2019-02-17T19:20:45.874Z,68.58
2019-02-17T19:25:52.989Z,69.01
2019-02-17T19:30:58.650Z,70.11
2019-02-17T19:36:03.496Z,70.37
2019-02-17T19:41:08.461Z,70.27
2019-02-17T19:46:14.336Z,70.29
2019-02-17T19:51:19.841Z,71.70
2019-02-17T19:56:25.879Z,71.49
2019-02-17T20:01:34.429Z,71.67
2019-02-17T20:06:40.690Z,72.07
2019-02-17T20:11:47.639Z,71.73
2019-02-17T20:16:54.386Z,72.18
2019-02-17T20:22:00.409Z,72.30
2019-02-17T20:27:04.562Z,71.43
2019-02-17T20:32:09.427Z,71.51
2019-02-17T20:37:15.383Z,71.25
2019-02-17T20:42:20.162Z,71.56
2019-02-17T20:47:26.495Z,72.65
2019-02-17T20:52:33.162Z,73.04
2019-02-17T20:57:39.617Z,73.18
2019-02-17T21:02:43.525Z,72.90
2019-02-17T21:07:49.917Z,73.12
2019-02-17T21:12:56.419Z,73.82
2019-02-17T21:18:03.119Z,73.77
2019-02-17T21:23:08.349Z,73.75
2019-02-17T21:28:11.824Z,74.79
2019-02-17T21:33:15.866Z,75.25
2019-02-17T21:38:19.475Z,74.69
2019-02-17T21:43:23.270Z,75.06
2019-02-17T21:48:26.827Z,74.98
2019-02-17T21:53:33.922Z,74.65
2019-02-17T21:58:37.606Z,74.29
2019-02-17T22:03:41.162Z,74.49
2019-02-17T22:08:44.739Z,73.79
2019-02-17T22:13:48.256Z,74.02
2019-02-17T22:18:51.606Z,73.97
2019-02-17T22:23:55.145Z,74.30
2019-02-17T22:28:59.876Z,74.05
2019-02-17T22:34:03.367Z,79.65
2019-02-17T22:39:07.352Z,66.78
2019-02-17T22:44:10.286Z,70.05
2019-02-17T22:49:13.666Z,73.07
2019-02-17T22:54:17.010Z,73.79
2019-02-17T22:59:20.465Z,74.32
2019-02-17T23:04:23.476Z,75.40
2019-02-17T23:09:26.816Z,75.70
2019-02-17T23:14:29.773Z,76.97
2019-02-17T23:19:33.307Z,76.55
2019-02-17T23:24:36.171Z,76.43
2019-02-17T23:29:39.763Z,77.03
2019-02-17T23:34:42.729Z,77.12
2019-02-17T23:39:45.930Z,76.99
2019-02-17T23:44:49.098Z,77.46
2019-02-17T23:49:52.163Z,77.67
2019-02-17T23:54:55.298Z,77.82
